Turvania, Brazil
Current Conditions -  °F | °C
As of 1:00 PM on Thursday 18 Dec 2014 (Local Time) from SBGO Reporting Station
Broken Clouds Broken Clouds  
Wind Chill: 82°   Ceiling: 3600
Heat Index: 85°   Visibility: 6mi
Dew Point: 66°   Wind: 12mph
Humidity: 58%   Direction: 350°N
Pressure: 29.94"   Gusts: NA
Location:  16.61°S, 50.13°W
Report Text: SBGO 181500Z 35010KT 9999 BKN036 FEW040TCU 28/19 Q1014
Loading
Personal Weather Stations






























Interactive Weather Map New forecast layout! Learn more

10-Day Weather Forecast

Advertisements
Track Severe Weather on mobile